sensor_id;sensor_type;location;lat;lon;timestamp;pressure;altitude;pressure_sealevel;temperature;humidity
3254;BME280;1639;42.804;23.342;2023-05-01T00:02:12;73321.81;;;-148.52;100.00
3254;BME280;1639;42.804;23.342;2023-05-01T00:04:37;73338.38;;;-148.52;100.00
3254;BME280;1639;42.804;23.342;2023-05-01T00:07:03;73357.00;;;-148.52;100.00
3254;BME280;1639;42.804;23.342;2023-05-01T00:09:28;73344.56;;;-148.52;100.00
3254;BME280;1639;42.804;23.342;2023-05-01T00:11:54;73340.44;;;-148.52;100.00
3254;BME280;1639;42.804;23.342;2023-05-01T00:14:19;73340.44;;;-148.52;100.00
3254;BME280;1639;42.804;23.342;2023-05-01T00:16:45;73332.16;;;-148.52;100.00
3254;BME280;1639;42.804;23.342;2023-05-01T00:19:11;73336.31;;;-148.52;100.00
3254;BME280;1639;42.804;23.342;2023-05-01T00:21:36;73325.97;;;-148.52;100.00
3254;BME280;1639;42.804;23.342;2023-05-01T00:24:02;73342.50;;;-148.52;100.00
3254;BME280;1639;42.804;23.342;2023-05-01T00:26:27;73352.84;;;-148.52;100.00
3254;BME280;1639;42.804;23.342;2023-05-01T00:28:55;73369.41;;;-148.52;100.00
3254;BME280;1639;42.804;23.342;2023-05-01T00:31:23;73385.94;;;-148.52;100.00
3254;BME280;1639;42.804;23.342;2023-05-01T00:33:49;73385.94;;;-148.52;100.00
3254;BME280;1639;42.804;23.342;2023-05-01T00:36:14;73402.50;;;-148.52;100.00
3254;BME280;1639;42.804;23.342;2023-05-01T00:38:40;73394.22;;;-148.52;100.00
3254;BME280;1639;42.804;23.342;2023-05-01T00:41:05;73414.91;;;-148.52;100.00
3254;BME280;1639;42.804;23.342;2023-05-01T00:43:31;73410.75;;;-148.52;100.00
3254;BME280;1639;42.804;23.342;2023-05-01T00:45:56;73408.69;;;-148.52;100.00
3254;BME280;1639;42.804;23.342;2023-05-01T00:48:22;73406.63;;;-148.52;100.00
3254;BME280;1639;42.804;23.342;2023-05-01T00:50:48;73408.69;;;-148.52;100.00
3254;BME280;1639;42.804;23.342;2023-05-01T00:53:14;73406.63;;;-148.52;100.00
3254;BME280;1639;42.804;23.342;2023-05-01T00:55:41;73410.75;;;-148.52;100.00
3254;BME280;1639;42.804;23.342;2023-05-01T00:58:06;73414.91;;;-148.52;100.00
3254;BME280;1639;42.804;23.342;2023-05-01T01:00:32;73414.91;;;-148.52;100.00
3254;BME280;1639;42.804;23.342;2023-05-01T01:02:58;73425.25;;;-148.52;100.00
3254;BME280;1639;42.804;23.342;2023-05-01T01:05:26;73443.84;;;-148.52;100.00
3254;BME280;1639;42.804;23.342;2023-05-01T01:10:46;73433.53;;;-148.52;100.00
3254;BME280;1639;42.804;23.342;2023-05-01T01:16:03;73421.09;;;-148.52;100.00
3254;BME280;1639;42.804;23.342;2023-05-01T01:21:45;73419.03;;;-148.52;100.00
3254;BME280;1639;42.804;23.342;2023-05-01T01:36:03;73489.38;;;-148.52;100.00
3254;BME280;1639;42.804;23.342;2023-05-01T01:38:53;73505.91;;;-148.52;100.00
3254;BME280;1639;42.804;23.342;2023-05-01T01:41:29;73495.56;;;-148.52;100.00
3254;BME280;1639;42.804;23.342;2023-05-01T01:44:15;73505.91;;;-148.52;100.00
3254;BME280;1639;42.804;23.342;2023-05-01T01:46:47;73526.59;;;-148.52;100.00
3254;BME280;1639;42.804;23.342;2023-05-01T01:49:18;73551.41;;;-148.52;100.00
3254;BME280;1639;42.804;23.342;2023-05-01T01:51:44;73539.00;;;-148.52;100.00
3254;BME280;1639;42.804;23.342;2023-05-01T01:54:12;73539.00;;;-148.52;100.00
3254;BME280;1639;42.804;23.342;2023-05-01T01:56:40;73547.28;;;-148.52;100.00
3254;BME280;1639;42.804;23.342;2023-05-01T01:59:07;73530.75;;;-148.52;100.00
3254;BME280;1639;42.804;23.342;2023-05-01T02:01:33;73522.47;;;-148.52;100.00
3254;BME280;1639;42.804;23.342;2023-05-01T02:04:00;73516.25;;;-148.52;100.00
3254;BME280;1639;42.804;23.342;2023-05-01T02:06:27;73518.31;;;-148.52;100.00
3254;BME280;1639;42.804;23.342;2023-05-01T02:08:56;73541.06;;;-148.52;100.00
3254;BME280;1639;42.804;23.342;2023-05-01T02:11:23;73545.22;;;-148.52;100.00
3254;BME280;1639;42.804;23.342;2023-05-01T02:13:50;73547.28;;;-148.52;100.00
3254;BME280;1639;42.804;23.342;2023-05-01T02:16:17;73541.06;;;-148.52;100.00
3254;BME280;1639;42.804;23.342;2023-05-01T02:18:45;73534.88;;;-148.52;100.00
3254;BME280;1639;42.804;23.342;2023-05-01T02:21:11;73545.22;;;-148.52;100.00
3254;BME280;1639;42.804;23.342;2023-05-01T02:23:38;73536.94;;;-148.52;100.00
3254;BME280;1639;42.804;23.342;2023-05-01T02:26:04;73532.81;;;-148.52;100.00
3254;BME280;1639;42.804;23.342;2023-05-01T02:28:30;73539.00;;;-148.52;100.00
3254;BME280;1639;42.804;23.342;2023-05-01T02:30:58;73559.69;;;-148.52;100.00
3254;BME280;1639;42.804;23.342;2023-05-01T02:33:23;73555.56;;;-148.52;100.00
3254;BME280;1639;42.804;23.342;2023-05-01T02:35:49;73541.06;;;-148.52;100.00
3254;BME280;1639;42.804;23.342;2023-05-01T02:38:15;73536.94;;;-148.52;100.00
3254;BME280;1639;42.804;23.342;2023-05-01T02:40:45;73532.81;;;-148.52;100.00
3254;BME280;1639;42.804;23.342;2023-05-01T02:43:12;73530.75;;;-148.52;100.00
3254;BME280;1639;42.804;23.342;2023-05-01T02:45:41;73549.34;;;-148.52;100.00
3254;BME280;1639;42.804;23.342;2023-05-01T02:48:08;73578.31;;;-148.52;100.00
3254;BME280;1639;42.804;23.342;2023-05-01T02:50:36;73559.69;;;-148.52;100.00
3254;BME280;1639;42.804;23.342;2023-05-01T02:53:05;73561.75;;;-148.52;100.00
3254;BME280;1639;42.804;23.342;2023-05-01T02:55:31;73567.97;;;-148.52;100.00
3254;BME280;1639;42.804;23.342;2023-05-01T02:57:57;73576.25;;;-148.52;100.00
3254;BME280;1639;42.804;23.342;2023-05-01T03:00:24;73576.25;;;-148.52;100.00
3254;BME280;1639;42.804;23.342;2023-05-01T03:02:50;73601.06;;;-148.52;100.00
3254;BME280;1639;42.804;23.342;2023-05-01T03:05:15;73605.19;;;-148.52;100.00
3254;BME280;1639;42.804;23.342;2023-05-01T03:07:40;73596.94;;;-148.52;100.00
3254;BME280;1639;42.804;23.342;2023-05-01T03:10:06;73594.84;;;-148.52;100.00
3254;BME280;1639;42.804;23.342;2023-05-01T03:12:32;73584.50;;;-148.52;100.00
3254;BME280;1639;42.804;23.342;2023-05-01T03:14:57;73584.50;;;-148.52;100.00
3254;BME280;1639;42.804;23.342;2023-05-01T03:17:23;73592.78;;;-148.52;100.00
3254;BME280;1639;42.804;23.342;2023-05-01T03:19:48;73599.00;;;-148.52;100.00
3254;BME280;1639;42.804;23.342;2023-05-01T03:22:14;73599.00;;;-148.52;100.00
3254;BME280;1639;42.804;23.342;2023-05-01T03:24:40;73611.41;;;-148.52;100.00
3254;BME280;1639;42.804;23.342;2023-05-01T03:27:06;73607.28;;;-148.52;100.00
3254;BME280;1639;42.804;23.342;2023-05-01T03:29:32;73611.41;;;-148.52;100.00
3254;BME280;1639;42.804;23.342;2023-05-01T03:31:58;73607.28;;;-148.52;100.00
3254;BME280;1639;42.804;23.342;2023-05-01T03:34:24;73609.34;;;-148.52;100.00
3254;BME280;1639;42.804;23.342;2023-05-01T03:36:49;73617.63;;;-148.52;100.00
3254;BME280;1639;42.804;23.342;2023-05-01T03:39:14;73617.63;;;-148.52;100.00
3254;BME280;1639;42.804;23.342;2023-05-01T03:41:40;73623.81;;;-148.52;100.00
3254;BME280;1639;42.804;23.342;2023-05-01T03:44:05;73646.56;;;-148.52;100.00
3254;BME280;1639;42.804;23.342;2023-05-01T03:46:30;73654.84;;;-148.52;100.00
3254;BME280;1639;42.804;23.342;2023-05-01T03:48:56;73638.31;;;-148.52;100.00
3254;BME280;1639;42.804;23.342;2023-05-01T03:51:21;73632.09;;;-148.52;100.00
3254;BME280;1639;42.804;23.342;2023-05-01T03:53:47;73627.97;;;-148.52;100.00
3254;BME280;1639;42.804;23.342;2023-05-01T03:56:12;73617.63;;;-148.52;100.00
3254;BME280;1639;42.804;23.342;2023-05-01T03:58:38;73613.47;;;-148.52;100.00
3254;BME280;1639;42.804;23.342;2023-05-01T04:01:03;73609.34;;;-148.52;100.00
3254;BME280;1639;42.804;23.342;2023-05-01T04:03:28;73613.47;;;-148.52;100.00
3254;BME280;1639;42.804;23.342;2023-05-01T04:05:54;73625.88;;;-148.52;100.00
3254;BME280;1639;42.804;23.342;2023-05-01T04:08:19;73654.84;;;-148.52;100.00
3254;BME280;1639;42.804;23.342;2023-05-01T04:10:45;73630.03;;;-148.52;100.00
3254;BME280;1639;42.804;23.342;2023-05-01T04:13:10;73611.41;;;-148.52;100.00
3254;BME280;1639;42.804;23.342;2023-05-01T04:15:37;73586.59;;;-148.52;100.00
3254;BME280;1639;42.804;23.342;2023-05-01T04:18:03;73567.97;;;-148.52;100.00
3254;BME280;1639;42.804;23.342;2023-05-01T04:20:28;73553.50;;;-148.52;100.00
3254;BME280;1639;42.804;23.342;2023-05-01T04:22:53;73567.97;;;-148.52;100.00
3254;BME280;1639;42.804;23.342;2023-05-01T04:25:19;73563.84;;;-148.52;100.00
3254;BME280;1639;42.804;23.342;2023-05-01T04:27:45;73557.63;;;-148.52;100.00
3254;BME280;1639;42.804;23.342;2023-05-01T04:30:10;73541.06;;;-148.52;100.00
3254;BME280;1639;42.804;23.342;2023-05-01T04:32:35;73522.47;;;-148.52;100.00
3254;BME280;1639;42.804;23.342;2023-05-01T04:35:01;73512.13;;;-148.52;100.00
3254;BME280;1639;42.804;23.342;2023-05-01T04:37:26;73505.91;;;-148.52;100.00
3254;BME280;1639;42.804;23.342;2023-05-01T04:39:52;73485.22;;;-148.52;100.00
3254;BME280;1639;42.804;23.342;2023-05-01T04:42:17;73468.69;;;-148.52;100.00
3254;BME280;1639;42.804;23.342;2023-05-01T04:44:44;73454.19;;;-148.52;100.00
3254;BME280;1639;42.804;23.342;2023-05-01T04:47:09;73435.59;;;-148.52;100.00
3254;BME280;1639;42.804;23.342;2023-05-01T04:49:35;73437.66;;;-148.52;100.00
3254;BME280;1639;42.804;23.342;2023-05-01T04:52:00;73425.25;;;-148.52;100.00
3254;BME280;1639;42.804;23.342;2023-05-01T04:54:26;73439.72;;;-148.52;100.00
3254;BME280;1639;42.804;23.342;2023-05-01T04:56:52;73423.19;;;-148.52;100.00
3254;BME280;1639;42.804;23.342;2023-05-01T04:59:17;73443.84;;;-148.52;100.00
3254;BME280;1639;42.804;23.342;2023-05-01T05:01:42;73433.53;;;-148.52;100.00
3254;BME280;1639;42.804;23.342;2023-05-01T05:04:08;73431.44;;;-148.52;100.00
3254;BME280;1639;42.804;23.342;2023-05-01T05:06:34;73452.13;;;-148.52;100.00
3254;BME280;1639;42.804;23.342;2023-05-01T05:09:00;73419.03;;;-148.52;100.00
3254;BME280;1639;42.804;23.342;2023-05-01T05:11:25;73419.03;;;-148.52;100.00
3254;BME280;1639;42.804;23.342;2023-05-01T05:13:51;73416.97;;;-148.52;100.00
3254;BME280;1639;42.804;23.342;2023-05-01T05:16:16;73423.19;;;-148.52;100.00
3254;BME280;1639;42.804;23.342;2023-05-01T05:18:42;73406.63;;;-148.52;100.00
3254;BME280;1639;42.804;23.342;2023-05-01T05:21:07;73388.00;;;-148.52;100.00
3254;BME280;1639;42.804;23.342;2023-05-01T05:23:34;73414.91;;;-148.52;100.00
3254;BME280;1639;42.804;23.342;2023-05-01T05:26:00;73394.22;;;-148.52;100.00
3254;BME280;1639;42.804;23.342;2023-05-01T05:28:26;73419.03;;;-148.52;100.00
3254;BME280;1639;42.804;23.342;2023-05-01T05:30:53;73392.16;;;-148.52;100.00
3254;BME280;1639;42.804;23.342;2023-05-01T05:33:18;73369.41;;;-148.52;100.00
3254;BME280;1639;42.804;23.342;2023-05-01T05:35:44;73365.25;;;-148.52;100.00
3254;BME280;1639;42.804;23.342;2023-05-01T05:38:09;73332.16;;;-148.52;100.00
3254;BME280;1639;42.804;23.342;2023-05-01T05:40:35;73301.13;;;-148.52;100.00
3254;BME280;1639;42.804;23.342;2023-05-01T05:43:00;73276.31;;;-148.52;100.00
3254;BME280;1639;42.804;23.342;2023-05-01T05:45:26;73255.63;;;-148.52;100.00
3254;BME280;1639;42.804;23.342;2023-05-01T05:47:51;73245.28;;;-148.52;100.00
3254;BME280;1639;42.804;23.342;2023-05-01T05:50:16;73245.28;;;-148.52;100.00
3254;BME280;1639;42.804;23.342;2023-05-01T05:52:42;73234.94;;;-148.52;100.00
3254;BME280;1639;42.804;23.342;2023-05-01T05:55:07;73222.53;;;-148.52;100.00
3254;BME280;1639;42.804;23.342;2023-05-01T05:57:33;73261.84;;;-148.52;100.00
3254;BME280;1639;42.804;23.342;2023-05-01T06:00:01;73212.19;;;-148.52;100.00
3254;BME280;1639;42.804;23.342;2023-05-01T06:02:30;73276.31;;;-148.52;100.00
3254;BME280;1639;42.804;23.342;2023-05-01T06:04:55;73216.34;;;-148.52;100.00
3254;BME280;1639;42.804;23.342;2023-05-01T06:07:22;73183.25;;;-148.52;100.00
3254;BME280;1639;42.804;23.342;2023-05-01T06:09:48;73162.56;;;-148.52;100.00
3254;BME280;1639;42.804;23.342;2023-05-01T06:12:13;73150.16;;;-148.52;100.00
3254;BME280;1639;42.804;23.342;2023-05-01T06:14:38;73133.59;;;-148.52;100.00
3254;BME280;1639;42.804;23.342;2023-05-01T06:17:05;73127.41;;;-148.52;100.00
3254;BME280;1639;42.804;23.342;2023-05-01T06:19:31;73121.19;;;-148.52;100.00
3254;BME280;1639;42.804;23.342;2023-05-01T06:21:57;73088.09;;;-148.52;100.00
3254;BME280;1639;42.804;23.342;2023-05-01T06:24:22;73073.63;;;-148.52;100.00
3254;BME280;1639;42.804;23.342;2023-05-01T06:26:47;73040.53;;;-148.52;100.00
3254;BME280;1639;42.804;23.342;2023-05-01T06:29:13;73030.19;;;-148.52;100.00
3254;BME280;1639;42.804;23.342;2023-05-01T06:31:38;72988.81;;;-148.52;100.00
3254;BME280;1639;42.804;23.342;2023-05-01T06:34:03;72947.47;;;-148.52;100.00
3254;BME280;1639;42.804;23.342;2023-05-01T06:36:29;72918.50;;;-148.52;100.00
3254;BME280;1639;42.804;23.342;2023-05-01T06:38:55;72914.38;;;-148.52;100.00
3254;BME280;1639;42.804;23.342;2023-05-01T06:41:21;72881.28;;;-148.52;100.00
3254;BME280;1639;42.804;23.342;2023-05-01T06:43:47;72850.25;;;-148.52;100.00
3254;BME280;1639;42.804;23.342;2023-05-01T06:46:12;72914.38;;;-148.52;100.00
3254;BME280;1639;42.804;23.342;2023-05-01T06:48:38;72895.75;;;-148.52;100.00
3254;BME280;1639;42.804;23.342;2023-05-01T06:51:03;72895.75;;;-148.52;100.00
3254;BME280;1639;42.804;23.342;2023-05-01T06:53:29;72858.53;;;-148.52;100.00
3254;BME280;1639;42.804;23.342;2023-05-01T06:55:54;72904.03;;;-148.52;100.00
3254;BME280;1639;42.804;23.342;2023-05-01T06:58:20;72852.31;;;-148.52;100.00
3254;BME280;1639;42.804;23.342;2023-05-01T07:00:45;72808.91;;;-148.52;100.00
3254;BME280;1639;42.804;23.342;2023-05-01T07:03:11;72748.91;;;-148.52;100.00
3254;BME280;1639;42.804;23.342;2023-05-01T07:05:37;72732.38;;;-148.52;100.00
3254;BME280;1639;42.804;23.342;2023-05-01T07:08:04;72719.97;;;-148.52;100.00
3254;BME280;1639;42.804;23.342;2023-05-01T07:10:30;72682.75;;;-148.52;100.00
3254;BME280;1639;42.804;23.342;2023-05-01T07:12:56;72724.09;;;-148.52;100.00
3254;BME280;1639;42.804;23.342;2023-05-01T07:15:22;72668.28;;;-148.52;100.00
3254;BME280;1639;42.804;23.342;2023-05-01T07:17:49;72637.25;;;-148.52;100.00
3254;BME280;1639;42.804;23.342;2023-05-01T07:20:14;72604.16;;;-148.52;100.00
3254;BME280;1639;42.804;23.342;2023-05-01T07:22:41;72581.41;;;-148.52;100.00
3254;BME280;1639;42.804;23.342;2023-05-01T07:25:07;72591.75;;;-148.52;100.00
3254;BME280;1639;42.804;23.342;2023-05-01T07:27:32;72558.66;;;-148.52;100.00
3254;BME280;1639;42.804;23.342;2023-05-01T07:29:59;72509.03;;;-148.52;100.00
3254;BME280;1639;42.804;23.342;2023-05-01T07:32:25;72471.81;;;-148.52;100.00
3254;BME280;1639;42.804;23.342;2023-05-01T07:34:50;72442.84;;;-148.52;72.17
3254;BME280;1639;42.804;23.342;2023-05-01T07:37:16;72401.50;;;-148.52;65.10
3254;BME280;1639;42.804;23.342;2023-05-01T07:39:43;72393.22;;;-148.52;63.04
3254;BME280;1639;42.804;23.342;2023-05-01T07:42:08;72395.28;;;-148.52;61.69
3254;BME280;1639;42.804;23.342;2023-05-01T07:44:33;72411.84;;;-148.52;63.24
3254;BME280;1639;42.804;23.342;2023-05-01T07:47:03;72426.31;;;-148.52;60.08
3254;BME280;1639;42.804;23.342;2023-05-01T07:49:28;72376.69;;;-148.52;60.52
3254;BME280;1639;42.804;23.342;2023-05-01T07:51:54;72333.25;;;-148.52;58.63
3254;BME280;1639;42.804;23.342;2023-05-01T07:54:20;72341.53;;;-148.52;58.41
3254;BME280;1639;42.804;23.342;2023-05-01T07:56:47;72430.44;;;-148.52;61.25
3254;BME280;1639;42.804;23.342;2023-05-01T07:59:12;72401.50;;;-148.52;61.17
3254;BME280;1639;42.804;23.342;2023-05-01T08:01:39;72356.00;;;-148.52;60.64
3254;BME280;1639;42.804;23.342;2023-05-01T08:04:05;72289.84;;;-148.52;58.87
3254;BME280;1639;42.804;23.342;2023-05-01T08:06:31;72269.16;;;-148.52;55.25
3254;BME280;1639;42.804;23.342;2023-05-01T08:08:56;72219.53;;;-148.52;56.00
3254;BME280;1639;42.804;23.342;2023-05-01T08:11:22;72182.31;;;-148.52;54.39
3254;BME280;1639;42.804;23.342;2023-05-01T08:13:47;72145.09;;;-148.52;53.49
3254;BME280;1639;42.804;23.342;2023-05-01T08:16:13;72171.97;;;-148.52;52.76
3254;BME280;1639;42.804;23.342;2023-05-01T08:18:38;72161.63;;;-148.52;54.02
3254;BME280;1639;42.804;23.342;2023-05-01T08:21:03;72140.94;;;-148.52;52.70
3254;BME280;1639;42.804;23.342;2023-05-01T08:23:29;72190.56;;;-148.52;52.39
3254;BME280;1639;42.804;23.342;2023-05-01T08:25:54;72165.75;;;-148.52;54.17
3254;BME280;1639;42.804;23.342;2023-05-01T08:28:21;72112.00;;;-148.52;56.81
3254;BME280;1639;42.804;23.342;2023-05-01T08:30:47;72103.72;;;-148.52;51.49
3254;BME280;1639;42.804;23.342;2023-05-01T08:33:13;72116.13;;;-148.52;49.59
3254;BME280;1639;42.804;23.342;2023-05-01T08:35:38;72178.16;;;-148.52;51.64
3254;BME280;1639;42.804;23.342;2023-05-01T08:38:04;72126.47;;;-148.52;50.69
3254;BME280;1639;42.804;23.342;2023-05-01T08:40:35;72089.25;;;-148.52;50.37
3254;BME280;1639;42.804;23.342;2023-05-01T08:43:02;72085.13;;;-148.52;46.59
3254;BME280;1639;42.804;23.342;2023-05-01T08:45:32;72070.66;;;-148.52;46.97
3254;BME280;1639;42.804;23.342;2023-05-01T08:48:04;72025.16;;;-148.52;47.23
3254;BME280;1639;42.804;23.342;2023-05-01T08:50:31;72025.16;;;-148.52;45.96
3254;BME280;1639;42.804;23.342;2023-05-01T08:52:58;72070.66;;;-148.52;48.04
3254;BME280;1639;42.804;23.342;2023-05-01T08:55:24;72078.91;;;-148.52;51.32
3254;BME280;1639;42.804;23.342;2023-05-01T08:57:51;72112.00;;;-148.52;48.07
3254;BME280;1639;42.804;23.342;2023-05-01T09:00:18;72165.75;;;-148.52;50.44
3254;BME280;1639;42.804;23.342;2023-05-01T09:02:46;72074.78;;;-148.52;48.53
3254;BME280;1639;42.804;23.342;2023-05-01T09:05:17;72031.38;;;-148.52;49.31
3254;BME280;1639;42.804;23.342;2023-05-01T09:07:43;72091.31;;;-148.52;51.55
3254;BME280;1639;42.804;23.342;2023-05-01T09:10:14;72118.22;;;-148.52;47.15
3254;BME280;1639;42.804;23.342;2023-05-01T09:12:41;72045.84;;;-148.52;49.15
3254;BME280;1639;42.804;23.342;2023-05-01T09:15:10;72105.81;;;-148.52;47.67
3254;BME280;1639;42.804;23.342;2023-05-01T09:17:36;72072.72;;;-148.52;46.21
3254;BME280;1639;42.804;23.342;2023-05-01T09:20:02;72103.72;;;-148.52;47.04
3254;BME280;1639;42.804;23.342;2023-05-01T09:22:32;72124.41;;;-148.52;47.41
3254;BME280;1639;42.804;23.342;2023-05-01T09:24:58;72269.16;;;-148.52;46.94
3254;BME280;1639;42.804;23.342;2023-05-01T09:27:26;72320.84;;;-148.52;48.57
3254;BME280;1639;42.804;23.342;2023-05-01T09:29:51;72415.97;;;-148.52;48.76
3254;BME280;1639;42.804;23.342;2023-05-01T09:32:20;72459.41;;;-148.52;47.72
3254;BME280;1639;42.804;23.342;2023-05-01T09:34:49;72511.09;;;-148.52;49.61
3254;BME280;1639;42.804;23.342;2023-05-01T09:37:28;72540.06;;;-148.52;51.28
3254;BME280;1639;42.804;23.342;2023-05-01T09:40:07;72521.44;;;-148.52;49.74
3254;BME280;1639;42.804;23.342;2023-05-01T09:42:35;72537.97;;;-148.52;48.14
3254;BME280;1639;42.804;23.342;2023-05-01T09:45:03;72552.47;;;-148.52;49.70
3254;BME280;1639;42.804;23.342;2023-05-01T09:47:29;72550.38;;;-148.52;48.82
3254;BME280;1639;42.804;23.342;2023-05-01T09:49:55;72540.06;;;-148.52;48.15
3254;BME280;1639;42.804;23.342;2023-05-01T09:52:29;72562.81;;;-148.52;49.46
3254;BME280;1639;42.804;23.342;2023-05-01T09:55:15;72562.81;;;-148.52;51.13
3254;BME280;1639;42.804;23.342;2023-05-01T09:57:43;72577.28;;;-148.52;50.05
3254;BME280;1639;42.804;23.342;2023-05-01T10:00:10;72542.13;;;-148.52;52.70
3254;BME280;1639;42.804;23.342;2023-05-01T10:02:37;72564.88;;;-148.52;51.41
3254;BME280;1639;42.804;23.342;2023-05-01T10:05:03;72542.13;;;-148.52;51.73
3254;BME280;1639;42.804;23.342;2023-05-01T10:07:28;72531.78;;;-148.52;51.05
3254;BME280;1639;42.804;23.342;2023-05-01T10:09:54;72537.97;;;-148.52;50.54
3254;BME280;1639;42.804;23.342;2023-05-01T10:12:27;72506.97;;;-148.52;49.79
3254;BME280;1639;42.804;23.342;2023-05-01T10:14:54;72496.63;;;-148.52;45.64
3254;BME280;1639;42.804;23.342;2023-05-01T10:17:20;72463.53;;;-148.52;47.85
3254;BME280;1639;42.804;23.342;2023-05-01T10:19:46;72424.25;;;-148.52;48.66
3254;BME280;1639;42.804;23.342;2023-05-01T10:22:13;72387.03;;;-148.52;49.14
3254;BME280;1639;42.804;23.342;2023-05-01T10:24:39;72349.81;;;-148.52;45.02
3254;BME280;1639;42.804;23.342;2023-05-01T10:27:08;72329.13;;;-148.52;44.60
3254;BME280;1639;42.804;23.342;2023-05-01T10:29:35;72271.22;;;-148.52;46.31
3254;BME280;1639;42.804;23.342;2023-05-01T10:32:04;72285.69;;;-148.52;44.70
3254;BME280;1639;42.804;23.342;2023-05-01T10:34:39;72285.69;;;-148.52;43.60
3254;BME280;1639;42.804;23.342;2023-05-01T10:45:45;72240.22;;;-148.52;41.38
3254;BME280;1639;42.804;23.342;2023-05-01T10:48:11;72205.06;;;-148.52;42.19
3254;BME280;1639;42.804;23.342;2023-05-01T10:53:42;72178.16;;;-148.52;41.02
3254;BME280;1639;42.804;23.342;2023-05-01T11:01:37;72105.81;;;-148.52;42.81
3254;BME280;1639;42.804;23.342;2023-05-01T11:09:37;72064.44;;;-148.52;40.99
3254;BME280;1639;42.804;23.342;2023-05-01T11:12:03;72056.16;;;-148.52;39.42
3254;BME280;1639;42.804;23.342;2023-05-01T11:22:34;72070.66;;;-148.52;41.20
3254;BME280;1639;42.804;23.342;2023-05-01T11:25:03;72049.97;;;-148.52;40.37
3254;BME280;1639;42.804;23.342;2023-05-01T11:27:54;72021.03;;;-148.52;41.41
3254;BME280;1639;42.804;23.342;2023-05-01T11:30:21;72016.88;;;-148.52;41.96
3254;BME280;1639;42.804;23.342;2023-05-01T11:32:48;71985.88;;;-148.52;42.07
3254;BME280;1639;42.804;23.342;2023-05-01T11:35:25;72008.63;;;-148.52;43.54
3254;BME280;1639;42.804;23.342;2023-05-01T11:37:53;72016.88;;;-148.52;42.37
3254;BME280;1639;42.804;23.342;2023-05-01T11:40:32;71967.25;;;-148.52;43.05
3254;BME280;1639;42.804;23.342;2023-05-01T11:43:03;71936.25;;;-148.52;35.85
3254;BME280;1639;42.804;23.342;2023-05-01T11:45:29;71950.72;;;-148.52;36.91
3254;BME280;1639;42.804;23.342;2023-05-01T11:47:54;71944.53;;;-148.52;37.61
3254;BME280;1639;42.804;23.342;2023-05-01T11:50:20;71921.78;;;-148.52;37.34
3254;BME280;1639;42.804;23.342;2023-05-01T11:52:49;71946.59;;;-148.52;34.86
3254;BME280;1639;42.804;23.342;2023-05-01T11:55:17;71940.38;;;-148.52;33.89
3254;BME280;1639;42.804;23.342;2023-05-01T11:57:50;71938.31;;;-148.52;33.98
3254;BME280;1639;42.804;23.342;2023-05-01T12:00:31;71884.56;;;-148.52;34.17
3254;BME280;1639;42.804;23.342;2023-05-01T12:03:00;71880.41;;;-148.52;32.56
3254;BME280;1639;42.804;23.342;2023-05-01T12:05:26;71892.81;;;-148.52;31.77
3254;BME280;1639;42.804;23.342;2023-05-01T12:08:12;71913.50;;;-148.52;33.09
3254;BME280;1639;42.804;23.342;2023-05-01T12:10:40;71925.91;;;-148.52;32.91
3254;BME280;1639;42.804;23.342;2023-05-01T12:13:08;71892.81;;;-148.52;33.36
3254;BME280;1639;42.804;23.342;2023-05-01T12:15:36;71870.09;;;-148.52;34.08
3254;BME280;1639;42.804;23.342;2023-05-01T12:18:06;71909.38;;;-148.52;35.70
3254;BME280;1639;42.804;23.342;2023-05-01T12:20:46;71963.13;;;-148.52;38.04
3254;BME280;1639;42.804;23.342;2023-05-01T12:23:13;71973.47;;;-148.52;40.60
3254;BME280;1639;42.804;23.342;2023-05-01T12:25:40;72025.16;;;-148.52;41.56
3254;BME280;1639;42.804;23.342;2023-05-01T12:28:25;72039.63;;;-148.52;40.35
3254;BME280;1639;42.804;23.342;2023-05-01T12:30:52;72066.50;;;-148.52;41.26
3254;BME280;1639;42.804;23.342;2023-05-01T12:33:21;72062.38;;;-148.52;40.33
3254;BME280;1639;42.804;23.342;2023-05-01T12:35:48;72066.50;;;-148.52;39.56
3254;BME280;1639;42.804;23.342;2023-05-01T12:38:20;72064.44;;;-148.52;40.45
3254;BME280;1639;42.804;23.342;2023-05-01T12:40:51;72066.50;;;-148.52;40.82
3254;BME280;1639;42.804;23.342;2023-05-01T12:43:19;72074.78;;;-148.52;40.28
3254;BME280;1639;42.804;23.342;2023-05-01T12:45:46;72058.25;;;-148.52;40.79
3254;BME280;1639;42.804;23.342;2023-05-01T12:48:14;72062.38;;;-148.52;40.31
3254;BME280;1639;42.804;23.342;2023-05-01T12:50:40;72078.91;;;-148.52;40.02
3254;BME280;1639;42.804;23.342;2023-05-01T12:53:06;72091.31;;;-148.52;40.66
3254;BME280;1639;42.804;23.342;2023-05-01T12:55:47;72101.66;;;-148.52;39.92
3254;BME280;1639;42.804;23.342;2023-05-01T12:58:14;72085.13;;;-148.52;39.71
3254;BME280;1639;42.804;23.342;2023-05-01T13:00:49;72087.19;;;-148.52;40.94
3254;BME280;1639;42.804;23.342;2023-05-01T13:03:24;72112.00;;;-148.52;40.75
3254;BME280;1639;42.804;23.342;2023-05-01T13:05:54;72107.88;;;-148.52;40.19
3254;BME280;1639;42.804;23.342;2023-05-01T13:08:31;72087.19;;;-148.52;39.56
3254;BME280;1639;42.804;23.342;2023-05-01T13:10:59;72101.66;;;-148.52;39.75
3254;BME280;1639;42.804;23.342;2023-05-01T13:13:35;72097.53;;;-148.52;39.40
3254;BME280;1639;42.804;23.342;2023-05-01T13:16:09;72093.41;;;-148.52;39.81
3254;BME280;1639;42.804;23.342;2023-05-01T13:18:51;72109.94;;;-148.52;38.11
3254;BME280;1639;42.804;23.342;2023-05-01T13:21:21;72112.00;;;-148.52;37.61
3254;BME280;1639;42.804;23.342;2023-05-01T13:23:54;72107.88;;;-148.52;37.48
3254;BME280;1639;42.804;23.342;2023-05-01T13:26:29;72103.72;;;-148.52;37.68
3254;BME280;1639;42.804;23.342;2023-05-01T13:28:55;72120.28;;;-148.52;39.23
3254;BME280;1639;42.804;23.342;2023-05-01T13:31:22;72128.53;;;-148.52;39.17
3254;BME280;1639;42.804;23.342;2023-05-01T13:33:52;72116.13;;;-148.52;41.03
3254;BME280;1639;42.804;23.342;2023-05-01T13:36:18;72114.06;;;-148.52;41.78
3254;BME280;1639;42.804;23.342;2023-05-01T13:38:51;72112.00;;;-148.52;39.77